sensor_id;sensor_type;location;lat;lon;timestamp;P1;durP1;ratioP1;P2;durP2;ratioP2
30635;SDS011;17400;52.392;9.750;2022-12-07T00:01:17;22.47;;;10.27;;
30635;SDS011;17400;52.392;9.750;2022-12-07T00:03:46;22.13;;;10.37;;
30635;SDS011;17400;52.392;9.750;2022-12-07T00:06:15;14.33;;;6.93;;
30635;SDS011;17400;52.392;9.750;2022-12-07T00:08:45;19.93;;;9.93;;
30635;SDS011;17400;52.392;9.750;2022-12-07T00:11:14;25.33;;;12.30;;
30635;SDS011;17400;52.392;9.750;2022-12-07T00:13:43;22.23;;;11.57;;
30635;SDS011;17400;52.392;9.750;2022-12-07T00:16:13;23.87;;;10.97;;
30635;SDS011;17400;52.392;9.750;2022-12-07T00:18:42;25.93;;;11.70;;
30635;SDS011;17400;52.392;9.750;2022-12-07T00:21:11;23.77;;;11.03;;
30635;SDS011;17400;52.392;9.750;2022-12-07T00:23:41;21.87;;;10.50;;
30635;SDS011;17400;52.392;9.750;2022-12-07T00:26:12;23.27;;;7.87;;
30635;SDS011;17400;52.392;9.750;2022-12-07T00:28:44;20.73;;;10.20;;
30635;SDS011;17400;52.392;9.750;2022-12-07T00:31:13;18.97;;;9.57;;
30635;SDS011;17400;52.392;9.750;2022-12-07T00:33:42;21.73;;;10.07;;
30635;SDS011;17400;52.392;9.750;2022-12-07T00:36:12;23.47;;;11.87;;
30635;SDS011;17400;52.392;9.750;2022-12-07T00:38:41;24.40;;;12.17;;
30635;SDS011;17400;52.392;9.750;2022-12-07T00:41:10;27.93;;;10.93;;
30635;SDS011;17400;52.392;9.750;2022-12-07T00:43:41;19.33;;;9.43;;
30635;SDS011;17400;52.392;9.750;2022-12-07T00:46:10;22.57;;;11.47;;
30635;SDS011;17400;52.392;9.750;2022-12-07T00:48:38;17.90;;;9.33;;
30635;SDS011;17400;52.392;9.750;2022-12-07T00:51:06;23.10;;;11.30;;
30635;SDS011;17400;52.392;9.750;2022-12-07T00:53:35;22.03;;;11.90;;
30635;SDS011;17400;52.392;9.750;2022-12-07T00:56:07;18.93;;;9.00;;
30635;SDS011;17400;52.392;9.750;2022-12-07T00:58:37;18.87;;;10.50;;
30635;SDS011;17400;52.392;9.750;2022-12-07T01:01:05;19.37;;;10.97;;
30635;SDS011;17400;52.392;9.750;2022-12-07T01:03:35;20.17;;;9.90;;
30635;SDS011;17400;52.392;9.750;2022-12-07T01:06:03;18.23;;;10.10;;
30635;SDS011;17400;52.392;9.750;2022-12-07T01:08:31;20.80;;;11.23;;
30635;SDS011;17400;52.392;9.750;2022-12-07T01:10:59;17.67;;;11.10;;
30635;SDS011;17400;52.392;9.750;2022-12-07T01:13:28;18.27;;;10.50;;
30635;SDS011;17400;52.392;9.750;2022-12-07T01:15:58;20.77;;;10.70;;
30635;SDS011;17400;52.392;9.750;2022-12-07T01:18:27;22.57;;;11.00;;
30635;SDS011;17400;52.392;9.750;2022-12-07T01:20:57;20.53;;;11.57;;
30635;SDS011;17400;52.392;9.750;2022-12-07T01:23:26;22.33;;;10.83;;
30635;SDS011;17400;52.392;9.750;2022-12-07T01:25:54;20.13;;;11.80;;
30635;SDS011;17400;52.392;9.750;2022-12-07T01:28:23;18.33;;;10.10;;
30635;SDS011;17400;52.392;9.750;2022-12-07T01:30:55;21.03;;;11.77;;
30635;SDS011;17400;52.392;9.750;2022-12-07T01:33:26;24.37;;;11.90;;
30635;SDS011;17400;52.392;9.750;2022-12-07T01:36:00;23.90;;;12.10;;
30635;SDS011;17400;52.392;9.750;2022-12-07T01:38:29;20.37;;;12.30;;
30635;SDS011;17400;52.392;9.750;2022-12-07T01:40:57;19.73;;;10.57;;
30635;SDS011;17400;52.392;9.750;2022-12-07T01:43:26;23.97;;;11.77;;
30635;SDS011;17400;52.392;9.750;2022-12-07T01:45:57;19.93;;;11.47;;
30635;SDS011;17400;52.392;9.750;2022-12-07T01:48:26;28.20;;;13.90;;
30635;SDS011;17400;52.392;9.750;2022-12-07T01:50:56;22.37;;;12.57;;
30635;SDS011;17400;52.392;9.750;2022-12-07T01:53:30;24.87;;;12.23;;
30635;SDS011;17400;52.392;9.750;2022-12-07T01:56:01;21.43;;;10.67;;
30635;SDS011;17400;52.392;9.750;2022-12-07T01:58:29;22.57;;;12.33;;
30635;SDS011;17400;52.392;9.750;2022-12-07T02:00:58;22.37;;;12.20;;
30635;SDS011;17400;52.392;9.750;2022-12-07T02:03:27;20.50;;;11.40;;
30635;SDS011;17400;52.392;9.750;2022-12-07T02:05:59;24.40;;;12.20;;
30635;SDS011;17400;52.392;9.750;2022-12-07T02:08:27;18.80;;;9.60;;
30635;SDS011;17400;52.392;9.750;2022-12-07T02:10:56;16.50;;;10.43;;
30635;SDS011;17400;52.392;9.750;2022-12-07T02:13:24;21.87;;;11.20;;
30635;SDS011;17400;52.392;9.750;2022-12-07T02:16:04;15.33;;;9.37;;
30635;SDS011;17400;52.392;9.750;2022-12-07T02:18:44;17.60;;;9.27;;
30635;SDS011;17400;52.392;9.750;2022-12-07T02:21:18;16.03;;;9.50;;
30635;SDS011;17400;52.392;9.750;2022-12-07T02:27:06;17.77;;;9.63;;
30635;SDS011;17400;52.392;9.750;2022-12-07T02:29:42;15.67;;;9.10;;
30635;SDS011;17400;52.392;9.750;2022-12-07T02:32:16;19.10;;;11.30;;
30635;SDS011;17400;52.392;9.750;2022-12-07T02:34:51;17.33;;;9.37;;
30635;SDS011;17400;52.392;9.750;2022-12-07T02:37:27;16.90;;;9.73;;
30635;SDS011;17400;52.392;9.750;2022-12-07T02:40:04;17.50;;;9.50;;
30635;SDS011;17400;52.392;9.750;2022-12-07T02:42:38;19.60;;;10.60;;
30635;SDS011;17400;52.392;9.750;2022-12-07T02:45:12;17.47;;;10.33;;
30635;SDS011;17400;52.392;9.750;2022-12-07T02:47:41;15.93;;;9.07;;
30635;SDS011;17400;52.392;9.750;2022-12-07T02:50:11;15.07;;;9.07;;
30635;SDS011;17400;52.392;9.750;2022-12-07T02:52:39;16.57;;;9.50;;
30635;SDS011;17400;52.392;9.750;2022-12-07T02:55:07;17.20;;;9.63;;
30635;SDS011;17400;52.392;9.750;2022-12-07T02:57:41;17.00;;;10.37;;
30635;SDS011;17400;52.392;9.750;2022-12-07T03:00:19;17.10;;;8.87;;
30635;SDS011;17400;52.392;9.750;2022-12-07T03:02:52;18.87;;;9.57;;
30635;SDS011;17400;52.392;9.750;2022-12-07T03:05:29;17.97;;;10.07;;
30635;SDS011;17400;52.392;9.750;2022-12-07T03:08:12;16.03;;;7.67;;
30635;SDS011;17400;52.392;9.750;2022-12-07T03:10:45;15.73;;;8.77;;
30635;SDS011;17400;52.392;9.750;2022-12-07T03:13:22;15.47;;;9.20;;
30635;SDS011;17400;52.392;9.750;2022-12-07T03:15:57;19.43;;;8.57;;
30635;SDS011;17400;52.392;9.750;2022-12-07T03:18:30;15.83;;;8.43;;
30635;SDS011;17400;52.392;9.750;2022-12-07T03:21:06;14.27;;;8.10;;
30635;SDS011;17400;52.392;9.750;2022-12-07T03:23:38;16.90;;;8.30;;
30635;SDS011;17400;52.392;9.750;2022-12-07T03:26:09;15.50;;;8.10;;
30635;SDS011;17400;52.392;9.750;2022-12-07T03:28:43;16.37;;;7.97;;
30635;SDS011;17400;52.392;9.750;2022-12-07T03:31:17;11.00;;;6.43;;
30635;SDS011;17400;52.392;9.750;2022-12-07T03:33:49;15.10;;;8.33;;
30635;SDS011;17400;52.392;9.750;2022-12-07T03:36:21;12.57;;;7.73;;
30635;SDS011;17400;52.392;9.750;2022-12-07T03:38:54;15.03;;;8.10;;
30635;SDS011;17400;52.392;9.750;2022-12-07T03:41:28;14.13;;;6.70;;
30635;SDS011;17400;52.392;9.750;2022-12-07T03:43:58;18.33;;;7.77;;
30635;SDS011;17400;52.392;9.750;2022-12-07T03:46:32;11.43;;;6.33;;
30635;SDS011;17400;52.392;9.750;2022-12-07T03:49:06;13.83;;;7.90;;
30635;SDS011;17400;52.392;9.750;2022-12-07T03:51:40;10.87;;;6.20;;
30635;SDS011;17400;52.392;9.750;2022-12-07T03:54:14;12.60;;;5.97;;
30635;SDS011;17400;52.392;9.750;2022-12-07T03:56:46;13.07;;;6.40;;
30635;SDS011;17400;52.392;9.750;2022-12-07T03:59:15;15.30;;;6.03;;
30635;SDS011;17400;52.392;9.750;2022-12-07T04:01:51;13.57;;;7.00;;
30635;SDS011;17400;52.392;9.750;2022-12-07T04:04:20;12.03;;;6.43;;
30635;SDS011;17400;52.392;9.750;2022-12-07T04:06:48;11.40;;;6.37;;
30635;SDS011;17400;52.392;9.750;2022-12-07T04:09:16;11.10;;;6.77;;
30635;SDS011;17400;52.392;9.750;2022-12-07T04:11:43;12.40;;;7.60;;
30635;SDS011;17400;52.392;9.750;2022-12-07T04:14:11;13.63;;;7.03;;
30635;SDS011;17400;52.392;9.750;2022-12-07T04:16:46;11.83;;;6.63;;
30635;SDS011;17400;52.392;9.750;2022-12-07T04:19:16;10.70;;;6.40;;
30635;SDS011;17400;52.392;9.750;2022-12-07T04:21:44;11.10;;;6.37;;
30635;SDS011;17400;52.392;9.750;2022-12-07T04:24:12;10.00;;;6.67;;
30635;SDS011;17400;52.392;9.750;2022-12-07T04:26:41;15.77;;;7.00;;
30635;SDS011;17400;52.392;9.750;2022-12-07T04:29:10;10.93;;;5.60;;
30635;SDS011;17400;52.392;9.750;2022-12-07T04:31:38;13.07;;;6.57;;
30635;SDS011;17400;52.392;9.750;2022-12-07T04:34:08;13.33;;;6.67;;
30635;SDS011;17400;52.392;9.750;2022-12-07T04:36:36;10.77;;;6.10;;
30635;SDS011;17400;52.392;9.750;2022-12-07T04:39:05;11.67;;;5.47;;
30635;SDS011;17400;52.392;9.750;2022-12-07T04:41:34;15.63;;;6.93;;
30635;SDS011;17400;52.392;9.750;2022-12-07T04:44:02;11.60;;;5.97;;
30635;SDS011;17400;52.392;9.750;2022-12-07T04:46:33;13.43;;;5.90;;
30635;SDS011;17400;52.392;9.750;2022-12-07T04:49:01;12.67;;;7.23;;
30635;SDS011;17400;52.392;9.750;2022-12-07T04:51:30;10.83;;;5.87;;
30635;SDS011;17400;52.392;9.750;2022-12-07T04:53:58;12.67;;;6.50;;
30635;SDS011;17400;52.392;9.750;2022-12-07T04:56:25;11.60;;;5.67;;
30635;SDS011;17400;52.392;9.750;2022-12-07T04:58:53;12.07;;;5.60;;
30635;SDS011;17400;52.392;9.750;2022-12-07T05:01:22;11.30;;;5.63;;
30635;SDS011;17400;52.392;9.750;2022-12-07T05:03:50;10.30;;;5.20;;
30635;SDS011;17400;52.392;9.750;2022-12-07T05:06:18;19.80;;;6.73;;
30635;SDS011;17400;52.392;9.750;2022-12-07T05:08:48;14.83;;;7.10;;
30635;SDS011;17400;52.392;9.750;2022-12-07T05:11:15;9.53;;;5.63;;
30635;SDS011;17400;52.392;9.750;2022-12-07T05:13:57;11.37;;;5.63;;
30635;SDS011;17400;52.392;9.750;2022-12-07T05:16:25;14.03;;;6.37;;
30635;SDS011;17400;52.392;9.750;2022-12-07T05:18:52;10.30;;;5.00;;
30635;SDS011;17400;52.392;9.750;2022-12-07T05:21:20;13.67;;;6.13;;
30635;SDS011;17400;52.392;9.750;2022-12-07T05:23:50;8.87;;;4.70;;
30635;SDS011;17400;52.392;9.750;2022-12-07T05:26:18;10.87;;;5.37;;
30635;SDS011;17400;52.392;9.750;2022-12-07T05:28:49;11.87;;;6.03;;
30635;SDS011;17400;52.392;9.750;2022-12-07T05:31:17;13.57;;;5.60;;
30635;SDS011;17400;52.392;9.750;2022-12-07T05:33:46;11.77;;;6.77;;
30635;SDS011;17400;52.392;9.750;2022-12-07T05:36:14;11.17;;;5.17;;
30635;SDS011;17400;52.392;9.750;2022-12-07T05:38:41;11.47;;;6.00;;
30635;SDS011;17400;52.392;9.750;2022-12-07T05:41:11;9.83;;;5.87;;
30635;SDS011;17400;52.392;9.750;2022-12-07T05:43:55;11.63;;;5.67;;
30635;SDS011;17400;52.392;9.750;2022-12-07T05:46:22;14.60;;;5.30;;
30635;SDS011;17400;52.392;9.750;2022-12-07T05:48:50;14.10;;;5.77;;
30635;SDS011;17400;52.392;9.750;2022-12-07T05:51:18;13.47;;;5.47;;
30635;SDS011;17400;52.392;9.750;2022-12-07T05:53:45;11.63;;;6.07;;
30635;SDS011;17400;52.392;9.750;2022-12-07T05:56:15;14.93;;;5.77;;
30635;SDS011;17400;52.392;9.750;2022-12-07T05:58:42;10.97;;;5.37;;
30635;SDS011;17400;52.392;9.750;2022-12-07T06:01:28;14.93;;;4.87;;
30635;SDS011;17400;52.392;9.750;2022-12-07T06:03:55;9.23;;;4.60;;
30635;SDS011;17400;52.392;9.750;2022-12-07T06:06:23;11.73;;;4.83;;
30635;SDS011;17400;52.392;9.750;2022-12-07T06:08:51;11.13;;;5.50;;
30635;SDS011;17400;52.392;9.750;2022-12-07T06:11:20;13.33;;;5.90;;
30635;SDS011;17400;52.392;9.750;2022-12-07T06:14:05;9.57;;;4.33;;
30635;SDS011;17400;52.392;9.750;2022-12-07T06:16:35;11.43;;;5.70;;
30635;SDS011;17400;52.392;9.750;2022-12-07T06:19:03;7.93;;;4.27;;
30635;SDS011;17400;52.392;9.750;2022-12-07T06:21:31;11.60;;;4.63;;
30635;SDS011;17400;52.392;9.750;2022-12-07T06:23:59;6.87;;;3.40;;
30635;SDS011;17400;52.392;9.750;2022-12-07T06:26:28;8.27;;;4.27;;
30635;SDS011;17400;52.392;9.750;2022-12-07T06:28:56;8.47;;;4.67;;
30635;SDS011;17400;52.392;9.750;2022-12-07T06:31:23;16.93;;;4.30;;
30635;SDS011;17400;52.392;9.750;2022-12-07T06:33:51;8.57;;;3.93;;
30635;SDS011;17400;52.392;9.750;2022-12-07T06:36:24;10.30;;;3.93;;
30635;SDS011;17400;52.392;9.750;2022-12-07T06:38:53;8.33;;;3.37;;
30635;SDS011;17400;52.392;9.750;2022-12-07T06:41:20;9.70;;;4.40;;
30635;SDS011;17400;52.392;9.750;2022-12-07T06:43:50;8.63;;;4.10;;
30635;SDS011;17400;52.392;9.750;2022-12-07T06:46:21;6.67;;;3.93;;
30635;SDS011;17400;52.392;9.750;2022-12-07T06:48:50;8.60;;;3.70;;
30635;SDS011;17400;52.392;9.750;2022-12-07T06:51:18;5.37;;;2.87;;
30635;SDS011;17400;52.392;9.750;2022-12-07T06:53:46;8.10;;;2.93;;
30635;SDS011;17400;52.392;9.750;2022-12-07T06:56:14;8.23;;;4.03;;
30635;SDS011;17400;52.392;9.750;2022-12-07T06:58:42;7.10;;;3.63;;
30635;SDS011;17400;52.392;9.750;2022-12-07T07:01:11;5.90;;;3.10;;
30635;SDS011;17400;52.392;9.750;2022-12-07T07:03:41;8.33;;;3.00;;
30635;SDS011;17400;52.392;9.750;2022-12-07T07:06:09;6.20;;;3.13;;
30635;SDS011;17400;52.392;9.750;2022-12-07T07:08:47;8.40;;;3.33;;
30635;SDS011;17400;52.392;9.750;2022-12-07T07:11:17;8.47;;;3.37;;
30635;SDS011;17400;52.392;9.750;2022-12-07T07:13:45;4.13;;;2.40;;
30635;SDS011;17400;52.392;9.750;2022-12-07T07:16:14;10.00;;;3.27;;
30635;SDS011;17400;52.392;9.750;2022-12-07T07:18:43;4.67;;;2.50;;
30635;SDS011;17400;52.392;9.750;2022-12-07T07:21:13;8.93;;;2.87;;
30635;SDS011;17400;52.392;9.750;2022-12-07T07:23:41;4.57;;;2.10;;
30635;SDS011;17400;52.392;9.750;2022-12-07T07:26:08;8.17;;;2.80;;
30635;SDS011;17400;52.392;9.750;2022-12-07T07:28:36;4.87;;;2.43;;
30635;SDS011;17400;52.392;9.750;2022-12-07T07:31:04;11.43;;;2.47;;
30635;SDS011;17400;52.392;9.750;2022-12-07T07:33:33;7.03;;;3.13;;
30635;SDS011;17400;52.392;9.750;2022-12-07T07:36:01;4.10;;;2.50;;
30635;SDS011;17400;52.392;9.750;2022-12-07T07:38:29;3.17;;;1.90;;
30635;SDS011;17400;52.392;9.750;2022-12-07T07:40:56;4.50;;;2.17;;
30635;SDS011;17400;52.392;9.750;2022-12-07T07:43:24;6.60;;;1.97;;
30635;SDS011;17400;52.392;9.750;2022-12-07T07:45:52;2.97;;;1.53;;
30635;SDS011;17400;52.392;9.750;2022-12-07T07:48:19;6.27;;;2.90;;
30635;SDS011;17400;52.392;9.750;2022-12-07T07:50:50;6.97;;;2.63;;
30635;SDS011;17400;52.392;9.750;2022-12-07T07:53:18;6.17;;;2.73;;
30635;SDS011;17400;52.392;9.750;2022-12-07T07:55:50;6.50;;;2.07;;
30635;SDS011;17400;52.392;9.750;2022-12-07T07:58:18;6.90;;;2.27;;
30635;SDS011;17400;52.392;9.750;2022-12-07T08:00:46;7.47;;;2.27;;
30635;SDS011;17400;52.392;9.750;2022-12-07T08:03:14;3.37;;;1.87;;
30635;SDS011;17400;52.392;9.750;2022-12-07T08:05:41;7.17;;;2.03;;
30635;SDS011;17400;52.392;9.750;2022-12-07T08:08:10;3.33;;;1.70;;
30635;SDS011;17400;52.392;9.750;2022-12-07T08:10:38;3.53;;;1.40;;
30635;SDS011;17400;52.392;9.750;2022-12-07T08:13:06;5.00;;;2.13;;
30635;SDS011;17400;52.392;9.750;2022-12-07T08:15:41;4.80;;;1.33;;
30635;SDS011;17400;52.392;9.750;2022-12-07T08:18:11;5.93;;;2.10;;
30635;SDS011;17400;52.392;9.750;2022-12-07T08:20:40;3.63;;;1.67;;
30635;SDS011;17400;52.392;9.750;2022-12-07T08:23:09;5.63;;;1.80;;
30635;SDS011;17400;52.392;9.750;2022-12-07T08:25:38;4.03;;;1.87;;
30635;SDS011;17400;52.392;9.750;2022-12-07T08:28:06;4.13;;;1.47;;
30635;SDS011;17400;52.392;9.750;2022-12-07T08:30:34;5.30;;;1.53;;
30635;SDS011;17400;52.392;9.750;2022-12-07T08:33:02;6.33;;;1.80;;
30635;SDS011;17400;52.392;9.750;2022-12-07T08:35:32;10.97;;;3.27;;
30635;SDS011;17400;52.392;9.750;2022-12-07T08:38:00;4.40;;;2.00;;
30635;SDS011;17400;52.392;9.750;2022-12-07T08:40:30;2.17;;;1.00;;
30635;SDS011;17400;52.392;9.750;2022-12-07T08:42:57;4.90;;;1.20;;
30635;SDS011;17400;52.392;9.750;2022-12-07T08:45:25;3.20;;;1.57;;
30635;SDS011;17400;52.392;9.750;2022-12-07T08:47:54;3.27;;;1.67;;
30635;SDS011;17400;52.392;9.750;2022-12-07T08:50:28;1.53;;;1.10;;
30635;SDS011;17400;52.392;9.750;2022-12-07T08:52:56;4.07;;;1.60;;
30635;SDS011;17400;52.392;9.750;2022-12-07T08:55:26;4.83;;;1.73;;
30635;SDS011;17400;52.392;9.750;2022-12-07T08:57:58;4.60;;;1.70;;
30635;SDS011;17400;52.392;9.750;2022-12-07T09:00:26;1.87;;;1.20;;
30635;SDS011;17400;52.392;9.750;2022-12-07T09:02:54;4.03;;;2.37;;
30635;SDS011;17400;52.392;9.750;2022-12-07T09:05:22;3.27;;;1.57;;
30635;SDS011;17400;52.392;9.750;2022-12-07T09:07:51;1.07;;;0.93;;
30635;SDS011;17400;52.392;9.750;2022-12-07T09:10:22;3.27;;;1.43;;
30635;SDS011;17400;52.392;9.750;2022-12-07T09:12:50;8.77;;;2.20;;
30635;SDS011;17400;52.392;9.750;2022-12-07T09:15:19;5.57;;;2.70;;
30635;SDS011;17400;52.392;9.750;2022-12-07T09:17:47;6.33;;;3.40;;
30635;SDS011;17400;52.392;9.750;2022-12-07T09:20:15;7.07;;;3.07;;
30635;SDS011;17400;52.392;9.750;2022-12-07T09:22:42;13.17;;;7.30;;
30635;SDS011;17400;52.392;9.750;2022-12-07T09:25:10;6.60;;;3.20;;
30635;SDS011;17400;52.392;9.750;2022-12-07T09:27:38;7.60;;;3.23;;
30635;SDS011;17400;52.392;9.750;2022-12-07T09:30:06;2.80;;;1.67;;
30635;SDS011;17400;52.392;9.750;2022-12-07T09:32:36;3.37;;;1.60;;
30635;SDS011;17400;52.392;9.750;2022-12-07T09:35:04;5.10;;;2.80;;
30635;SDS011;17400;52.392;9.750;2022-12-07T09:37:32;3.67;;;1.00;;
30635;SDS011;17400;52.392;9.750;2022-12-07T09:40:02;5.57;;;2.50;;
30635;SDS011;17400;52.392;9.750;2022-12-07T09:42:32;5.47;;;2.10;;
30635;SDS011;17400;52.392;9.750;2022-12-07T09:45:04;8.53;;;2.03;;
30635;SDS011;17400;52.392;9.750;2022-12-07T09:47:34;2.60;;;1.70;;
30635;SDS011;17400;52.392;9.750;2022-12-07T09:50:05;1.17;;;1.00;;
30635;SDS011;17400;52.392;9.750;2022-12-07T09:52:39;2.10;;;1.20;;
30635;SDS011;17400;52.392;9.750;2022-12-07T09:55:09;4.57;;;1.13;;
30635;SDS011;17400;52.392;9.750;2022-12-07T09:57:40;3.33;;;1.07;;
30635;SDS011;17400;52.392;9.750;2022-12-07T10:00:11;1.87;;;0.73;;
30635;SDS011;17400;52.392;9.750;2022-12-07T10:02:42;2.50;;;1.10;;
30635;SDS011;17400;52.392;9.750;2022-12-07T10:05:14;2.30;;;1.00;;
30635;SDS011;17400;52.392;9.750;2022-12-07T10:07:49;6.60;;;1.20;;
30635;SDS011;17400;52.392;9.750;2022-12-07T10:10:18;2.07;;;0.70;;
30635;SDS011;17400;52.392;9.750;2022-12-07T10:12:54;2.87;;;1.30;;
30635;SDS011;17400;52.392;9.750;2022-12-07T10:15:37;4.57;;;2.10;;
30635;SDS011;17400;52.392;9.750;2022-12-07T10:18:19;4.47;;;2.90;;
30635;SDS011;17400;52.392;9.750;2022-12-07T10:21:10;6.93;;;3.17;;
30635;SDS011;17400;52.392;9.750;2022-12-07T10:23:40;4.63;;;2.20;;
30635;SDS011;17400;52.392;9.750;2022-12-07T10:26:19;15.33;;;4.63;;
30635;SDS011;17400;52.392;9.750;2022-12-07T10:28:54;12.57;;;3.57;;
30635;SDS011;17400;52.392;9.750;2022-12-07T10:31:22;24.27;;;5.83;;
30635;SDS011;17400;52.392;9.750;2022-12-07T10:33:51;22.00;;;7.60;;
30635;SDS011;17400;52.392;9.750;2022-12-07T10:36:23;7.40;;;2.57;;
30635;SDS011;17400;52.392;9.750;2022-12-07T10:38:53;8.10;;;2.60;;
30635;SDS011;17400;52.392;9.750;2022-12-07T10:41:27;3.53;;;1.83;;
30635;SDS011;17400;52.392;9.750;2022-12-07T10:43:55;5.10;;;1.53;;
30635;SDS011;17400;52.392;9.750;2022-12-07T10:46:35;3.73;;;1.57;;
30635;SDS011;17400;52.392;9.750;2022-12-07T10:52:18;7.97;;;2.30;;
30635;SDS011;17400;52.392;9.750;2022-12-07T10:55:03;15.33;;;3.07;;
30635;SDS011;17400;52.392;9.750;2022-12-07T10:57:46;3.60;;;1.67;;
30635;SDS011;17400;52.392;9.750;2022-12-07T11:00:27;4.13;;;1.83;;
30635;SDS011;17400;52.392;9.750;2022-12-07T11:06:00;6.73;;;1.97;;
30635;SDS011;17400;52.392;9.750;2022-12-07T11:08:42;3.80;;;1.57;;
30635;SDS011;17400;52.392;9.750;2022-12-07T11:11:23;5.20;;;1.60;;
30635;SDS011;17400;52.392;9.750;2022-12-07T11:14:01;4.90;;;2.20;;
30635;SDS011;17400;52.392;9.750;2022-12-07T11:16:42;6.23;;;1.97;;
30635;SDS011;17400;52.392;9.750;2022-12-07T11:19:24;9.53;;;2.77;;
30635;SDS011;17400;52.392;9.750;2022-12-07T11:22:03;6.63;;;2.10;;
30635;SDS011;17400;52.392;9.750;2022-12-07T11:24:39;2.23;;;1.27;;
30635;SDS011;17400;52.392;9.750;2022-12-07T11:27:15;5.87;;;1.60;;
30635;SDS011;17400;52.392;9.750;2022-12-07T11:29:54;11.67;;;2.50;;
30635;SDS011;17400;52.392;9.750;2022-12-07T11:32:37;4.83;;;1.83;;
30635;SDS011;17400;52.392;9.750;2022-12-07T11:35:14;6.93;;;1.90;;
30635;SDS011;17400;52.392;9.750;2022-12-07T11:37:50;3.67;;;1.67;;
30635;SDS011;17400;52.392;9.750;2022-12-07T11:40:26;9.30;;;2.77;;
30635;SDS011;17400;52.392;9.750;2022-12-07T11:43:01;4.87;;;2.23;;
30635;SDS011;17400;52.392;9.750;2022-12-07T11:45:32;7.60;;;3.37;;
30635;SDS011;17400;52.392;9.750;2022-12-07T11:48:01;6.17;;;2.13;;
30635;SDS011;17400;52.392;9.750;2022-12-07T11:50:36;6.57;;;2.27;;
30635;SDS011;17400;52.392;9.750;2022-12-07T11:53:10;8.50;;;3.83;;
30635;SDS011;17400;52.392;9.750;2022-12-07T11:55:46;6.23;;;2.77;;
30635;SDS011;17400;52.392;9.750;2022-12-07T11:58:35;5.33;;;1.97;;
30635;SDS011;17400;52.392;9.750;2022-12-07T12:01:20;6.67;;;2.60;;
30635;SDS011;17400;52.392;9.750;2022-12-07T12:03:58;2.27;;;1.43;;
30635;SDS011;17400;52.392;9.750;2022-12-07T12:06:32;6.00;;;2.60;;
30635;SDS011;17400;52.392;9.750;2022-12-07T12:09:02;8.50;;;2.07;;
30635;SDS011;17400;52.392;9.750;2022-12-07T12:12:04;3.80;;;1.60;;
30635;SDS011;17400;52.392;9.750;2022-12-07T12:15:09;3.87;;;2.03;;
30635;SDS011;17400;52.392;9.750;2022-12-07T12:17:59;8.30;;;2.37;;
30635;SDS011;17400;52.392;9.750;2022-12-07T12:20:37;8.97;;;3.63;;
30635;SDS011;17400;52.392;9.750;2022-12-07T12:23:12;11.13;;;4.00;;
30635;SDS011;17400;52.392;9.750;2022-12-07T12:25:43;12.47;;;4.13;;
30635;SDS011;17400;52.392;9.750;2022-12-07T12:28:23;15.00;;;5.40;;
30635;SDS011;17400;52.392;9.750;2022-12-07T12:31:07;12.77;;;7.53;;
30635;SDS011;17400;52.392;9.750;2022-12-07T12:33:42;19.13;;;5.97;;
30635;SDS011;17400;52.392;9.750;2022-12-07T12:36:22;11.37;;;5.07;;
30635;SDS011;17400;52.392;9.750;2022-12-07T12:39:09;10.50;;;3.40;;
30635;SDS011;17400;52.392;9.750;2022-12-07T12:41:56;12.70;;;4.20;;
30635;SDS011;17400;52.392;9.750;2022-12-07T12:44:43;14.37;;;4.90;;
30635;SDS011;17400;52.392;9.750;2022-12-07T12:54:04;9.73;;;2.50;;
30635;SDS011;17400;52.392;9.750;2022-12-07T12:56:39;14.17;;;4.70;;
30635;SDS011;17400;52.392;9.750;2022-12-07T12:59:18;10.00;;;4.73;;
30635;SDS011;17400;52.392;9.750;2022-12-07T13:01:51;9.30;;;4.63;;
30635;SDS011;17400;52.392;9.750;2022-12-07T13:04:28;12.33;;;5.23;;
30635;SDS011;17400;52.392;9.750;2022-12-07T13:07:02;7.70;;;2.20;;
30635;SDS011;17400;52.392;9.750;2022-12-07T13:09:31;5.27;;;2.20;;
30635;SDS011;17400;52.392;9.750;2022-12-07T13:12:02;5.67;;;3.80;;
30635;SDS011;17400;52.392;9.750;2022-12-07T13:14:52;8.50;;;3.53;;
30635;SDS011;17400;52.392;9.750;2022-12-07T13:20:48;5.80;;;2.47;;
30635;SDS011;17400;52.392;9.750;2022-12-07T13:23:28;4.93;;;1.67;;
30635;SDS011;17400;52.392;9.750;2022-12-07T13:26:14;5.90;;;2.03;;
30635;SDS011;17400;52.392;9.750;2022-12-07T13:28:45;5.53;;;1.80;;
30635;SDS011;17400;52.392;9.750;2022-12-07T13:31:23;3.17;;;1.90;;
30635;SDS011;17400;52.392;9.750;2022-12-07T13:34:00;2.63;;;1.37;;
30635;SDS011;17400;52.392;9.750;2022-12-07T13:36:31;4.40;;;1.40;;
30635;SDS011;17400;52.392;9.750;2022-12-07T13:39:10;6.30;;;1.70;;
30635;SDS011;17400;52.392;9.750;2022-12-07T13:41:44;2.77;;;1.83;;
30635;SDS011;17400;52.392;9.750;2022-12-07T13:44:17;8.33;;;2.20;;
30635;SDS011;17400;52.392;9.750;2022-12-07T13:46:48;3.37;;;2.10;;
30635;SDS011;17400;52.392;9.750;2022-12-07T13:49:22;8.05;;;2.00;;
30635;SDS011;17400;52.392;9.750;2022-12-07T13:51:53;2.20;;;1.83;;
30635;SDS011;17400;52.392;9.750;2022-12-07T13:54:22;5.57;;;2.23;;
30635;SDS011;17400;52.392;9.750;2022-12-07T13:56:51;3.27;;;1.90;;
30635;SDS011;17400;52.392;9.750;2022-12-07T13:59:21;6.22;;;2.45;;
30635;SDS011;17400;52.392;9.750;2022-12-07T14:01:51;10.53;;;3.40;;
30635;SDS011;17400;52.392;9.750;2022-12-07T14:07:21;4.43;;;2.43;;
30635;SDS011;17400;52.392;9.750;2022-12-07T14:09:56;8.33;;;3.00;;
30635;SDS011;17400;52.392;9.750;2022-12-07T14:12:25;9.23;;;3.10;;
30635;SDS011;17400;52.392;9.750;2022-12-07T14:14:55;5.87;;;3.13;;
30635;SDS011;17400;52.392;9.750;2022-12-07T14:17:24;4.87;;;1.53;;
30635;SDS011;17400;52.392;9.750;2022-12-07T14:19:54;3.87;;;2.07;;
30635;SDS011;17400;52.392;9.750;2022-12-07T14:22:34;4.33;;;1.53;;
30635;SDS011;17400;52.392;9.750;2022-12-07T14:25:16;5.63;;;2.00;;
30635;SDS011;17400;52.392;9.750;2022-12-07T14:27:48;1.67;;;0.83;;
30635;SDS011;17400;52.392;9.750;2022-12-07T14:30:19;4.37;;;1.50;;
30635;SDS011;17400;52.392;9.750;2022-12-07T14:32:48;4.87;;;1.50;;
30635;SDS011;17400;52.392;9.750;2022-12-07T14:35:19;3.00;;;1.03;;
30635;SDS011;17400;52.392;9.750;2022-12-07T14:37:49;3.93;;;1.77;;
30635;SDS011;17400;52.392;9.750;2022-12-07T14:40:18;4.87;;;1.37;;
30635;SDS011;17400;52.392;9.750;2022-12-07T14:42:48;5.23;;;1.53;;
30635;SDS011;17400;52.392;9.750;2022-12-07T14:45:19;3.70;;;1.67;;
30635;SDS011;17400;52.392;9.750;2022-12-07T14:47:48;2.67;;;1.73;;
30635;SDS011;17400;52.392;9.750;2022-12-07T14:50:37;3.00;;;1.60;;
30635;SDS011;17400;52.392;9.750;2022-12-07T14:53:30;6.67;;;2.20;;
30635;SDS011;17400;52.392;9.750;2022-12-07T14:56:02;3.70;;;1.70;;
30635;SDS011;17400;52.392;9.750;2022-12-07T14:58:31;2.57;;;1.40;;
30635;SDS011;17400;52.392;9.750;2022-12-07T15:01:00;3.47;;;1.50;;
30635;SDS011;17400;52.392;9.750;2022-12-07T15:03:28;7.73;;;1.50;;
30635;SDS011;17400;52.392;9.750;2022-12-07T15:05:57;5.57;;;1.30;;
30635;SDS011;17400;52.392;9.750;2022-12-07T15:08:25;3.20;;;1.50;;
30635;SDS011;17400;52.392;9.750;2022-12-07T15:10:56;2.30;;;1.30;;
30635;SDS011;17400;52.392;9.750;2022-12-07T15:13:24;2.80;;;1.73;;
30635;SDS011;17400;52.392;9.750;2022-12-07T15:16:10;5.30;;;2.20;;
30635;SDS011;17400;52.392;9.750;2022-12-07T15:18:40;6.50;;;2.77;;
30635;SDS011;17400;52.392;9.750;2022-12-07T15:21:28;10.77;;;1.93;;
30635;SDS011;17400;52.392;9.750;2022-12-07T15:23:56;7.80;;;2.60;;
30635;SDS011;17400;52.392;9.750;2022-12-07T15:26:26;3.23;;;1.90;;
30635;SDS011;17400;52.392;9.750;2022-12-07T15:28:54;5.63;;;2.00;;
30635;SDS011;17400;52.392;9.750;2022-12-07T15:31:22;3.40;;;2.20;;